sensor_id;sensor_type;location;lat;lon;timestamp;P1;durP1;ratioP1;P2;durP2;ratioP2
1507;SDS011;745;48.586;10.032;2024-02-21T00:01:41;8.30;;;5.37;;
1507;SDS011;745;48.586;10.032;2024-02-21T00:03:42;7.27;;;4.27;;
1507;SDS011;745;48.586;10.032;2024-02-21T00:05:42;9.80;;;4.90;;
1507;SDS011;745;48.586;10.032;2024-02-21T00:07:43;6.40;;;4.80;;
1507;SDS011;745;48.586;10.032;2024-02-21T00:09:43;7.20;;;4.50;;
1507;SDS011;745;48.586;10.032;2024-02-21T00:11:43;7.80;;;4.20;;
1507;SDS011;745;48.586;10.032;2024-02-21T00:13:44;10.57;;;5.10;;
1507;SDS011;745;48.586;10.032;2024-02-21T00:15:44;8.43;;;5.33;;
1507;SDS011;745;48.586;10.032;2024-02-21T00:17:44;6.53;;;4.90;;
1507;SDS011;745;48.586;10.032;2024-02-21T00:19:45;10.27;;;4.57;;
1507;SDS011;745;48.586;10.032;2024-02-21T00:21:45;9.33;;;5.17;;
1507;SDS011;745;48.586;10.032;2024-02-21T00:23:45;5.90;;;4.27;;
1507;SDS011;745;48.586;10.032;2024-02-21T00:25:46;7.20;;;4.50;;
1507;SDS011;745;48.586;10.032;2024-02-21T00:27:46;10.97;;;4.80;;
1507;SDS011;745;48.586;10.032;2024-02-21T00:29:46;13.40;;;4.70;;
1507;SDS011;745;48.586;10.032;2024-02-21T00:31:47;5.90;;;4.83;;
1507;SDS011;745;48.586;10.032;2024-02-21T00:33:49;7.88;;;5.05;;
1507;SDS011;745;48.586;10.032;2024-02-21T00:35:50;9.18;;;5.00;;
1507;SDS011;745;48.586;10.032;2024-02-21T00:37:51;8.50;;;4.87;;
1507;SDS011;745;48.586;10.032;2024-02-21T00:39:51;11.05;;;5.25;;
1507;SDS011;745;48.586;10.032;2024-02-21T00:41:53;13.45;;;5.10;;
1507;SDS011;745;48.586;10.032;2024-02-21T00:43:53;9.77;;;4.70;;
1507;SDS011;745;48.586;10.032;2024-02-21T00:45:53;6.37;;;4.63;;
1507;SDS011;745;48.586;10.032;2024-02-21T00:47:54;8.07;;;5.00;;
1507;SDS011;745;48.586;10.032;2024-02-21T00:49:54;11.13;;;4.77;;
1507;SDS011;745;48.586;10.032;2024-02-21T00:51:55;10.00;;;4.80;;
1507;SDS011;745;48.586;10.032;2024-02-21T00:53:55;7.30;;;3.83;;
1507;SDS011;745;48.586;10.032;2024-02-21T00:55:55;12.27;;;5.40;;
1507;SDS011;745;48.586;10.032;2024-02-21T00:57:56;10.75;;;4.05;;
1507;SDS011;745;48.586;10.032;2024-02-21T00:59:57;9.00;;;4.53;;
1507;SDS011;745;48.586;10.032;2024-02-21T01:01:57;5.10;;;4.00;;
1507;SDS011;745;48.586;10.032;2024-02-21T01:03:57;7.73;;;4.27;;
1507;SDS011;745;48.586;10.032;2024-02-21T01:05:58;13.03;;;4.97;;
1507;SDS011;745;48.586;10.032;2024-02-21T01:07:58;6.63;;;4.10;;
1507;SDS011;745;48.586;10.032;2024-02-21T01:09:58;9.53;;;4.17;;
1507;SDS011;745;48.586;10.032;2024-02-21T01:11:59;9.33;;;4.57;;
1507;SDS011;745;48.586;10.032;2024-02-21T01:13:59;10.00;;;4.60;;
1507;SDS011;745;48.586;10.032;2024-02-21T01:15:59;8.97;;;4.40;;
1507;SDS011;745;48.586;10.032;2024-02-21T01:18:00;8.30;;;4.23;;
1507;SDS011;745;48.586;10.032;2024-02-21T01:20:00;8.23;;;4.30;;
1507;SDS011;745;48.586;10.032;2024-02-21T01:22:01;12.37;;;4.50;;
1507;SDS011;745;48.586;10.032;2024-02-21T01:24:01;8.00;;;4.40;;
1507;SDS011;745;48.586;10.032;2024-02-21T01:26:02;6.20;;;3.80;;
1507;SDS011;745;48.586;10.032;2024-02-21T01:28:03;8.13;;;4.18;;
1507;SDS011;745;48.586;10.032;2024-02-21T01:30:04;6.67;;;3.87;;
1507;SDS011;745;48.586;10.032;2024-02-21T01:32:05;6.60;;;4.50;;
1507;SDS011;745;48.586;10.032;2024-02-21T01:34:06;7.60;;;4.20;;
1507;SDS011;745;48.586;10.032;2024-02-21T01:36:06;9.53;;;4.67;;
1507;SDS011;745;48.586;10.032;2024-02-21T01:38:07;8.37;;;4.27;;
1507;SDS011;745;48.586;10.032;2024-02-21T01:40:07;7.63;;;4.70;;
1507;SDS011;745;48.586;10.032;2024-02-21T01:42:08;6.90;;;3.70;;
1507;SDS011;745;48.586;10.032;2024-02-21T01:44:09;9.97;;;4.40;;
1507;SDS011;745;48.586;10.032;2024-02-21T01:46:09;6.57;;;4.10;;
1507;SDS011;745;48.586;10.032;2024-02-21T01:48:09;7.77;;;4.13;;
1507;SDS011;745;48.586;10.032;2024-02-21T01:50:10;8.27;;;4.00;;
1507;SDS011;745;48.586;10.032;2024-02-21T01:52:12;8.50;;;4.07;;
1507;SDS011;745;48.586;10.032;2024-02-21T01:54:14;8.48;;;3.83;;
1507;SDS011;745;48.586;10.032;2024-02-21T01:56:16;8.38;;;4.75;;
1507;SDS011;745;48.586;10.032;2024-02-21T01:58:17;7.70;;;4.77;;
1507;SDS011;745;48.586;10.032;2024-02-21T02:00:19;6.35;;;4.10;;
1507;SDS011;745;48.586;10.032;2024-02-21T02:02:20;8.52;;;4.03;;
1507;SDS011;745;48.586;10.032;2024-02-21T02:04:21;5.53;;;4.10;;
1507;SDS011;745;48.586;10.032;2024-02-21T02:06:22;7.05;;;3.90;;
1507;SDS011;745;48.586;10.032;2024-02-21T02:08:24;9.00;;;4.57;;
1507;SDS011;745;48.586;10.032;2024-02-21T02:10:24;6.43;;;3.93;;
1507;SDS011;745;48.586;10.032;2024-02-21T02:12:25;7.43;;;3.90;;
1507;SDS011;745;48.586;10.032;2024-02-21T02:14:25;11.90;;;4.40;;
1507;SDS011;745;48.586;10.032;2024-02-21T02:16:25;8.80;;;4.43;;
1507;SDS011;745;48.586;10.032;2024-02-21T02:18:26;6.27;;;3.60;;
1507;SDS011;745;48.586;10.032;2024-02-21T02:20:26;7.63;;;4.30;;
1507;SDS011;745;48.586;10.032;2024-02-21T02:22:29;6.13;;;3.83;;
1507;SDS011;745;48.586;10.032;2024-02-21T02:24:32;7.82;;;4.25;;
1507;SDS011;745;48.586;10.032;2024-02-21T02:26:33;4.57;;;3.77;;
1507;SDS011;745;48.586;10.032;2024-02-21T02:28:33;8.63;;;4.40;;
1507;SDS011;745;48.586;10.032;2024-02-21T02:30:34;9.53;;;3.90;;
1507;SDS011;745;48.586;10.032;2024-02-21T02:32:36;6.65;;;3.45;;
1507;SDS011;745;48.586;10.032;2024-02-21T02:34:36;6.80;;;3.00;;
1507;SDS011;745;48.586;10.032;2024-02-21T02:36:36;4.50;;;3.60;;
1507;SDS011;745;48.586;10.032;2024-02-21T02:38:37;8.10;;;3.60;;
1507;SDS011;745;48.586;10.032;2024-02-21T02:40:37;7.40;;;3.50;;
1507;SDS011;745;48.586;10.032;2024-02-21T02:42:39;6.22;;;4.18;;
1507;SDS011;745;48.586;10.032;2024-02-21T02:44:39;8.50;;;3.70;;
1507;SDS011;745;48.586;10.032;2024-02-21T02:46:42;6.47;;;3.60;;
1507;SDS011;745;48.586;10.032;2024-02-21T02:48:43;9.38;;;3.78;;
1507;SDS011;745;48.586;10.032;2024-02-21T02:50:45;4.72;;;3.35;;
1507;SDS011;745;48.586;10.032;2024-02-21T02:52:46;4.85;;;3.10;;
1507;SDS011;745;48.586;10.032;2024-02-21T02:54:46;6.40;;;3.77;;
1507;SDS011;745;48.586;10.032;2024-02-21T02:56:51;9.55;;;4.35;;
1507;SDS011;745;48.586;10.032;2024-02-21T02:58:52;6.83;;;4.03;;
1507;SDS011;745;48.586;10.032;2024-02-21T03:00:52;8.30;;;3.80;;
1507;SDS011;745;48.586;10.032;2024-02-21T03:02:52;5.57;;;3.47;;
1507;SDS011;745;48.586;10.032;2024-02-21T03:04:53;6.73;;;3.37;;
1507;SDS011;745;48.586;10.032;2024-02-21T03:06:53;6.73;;;4.40;;
1507;SDS011;745;48.586;10.032;2024-02-21T03:08:54;7.43;;;4.13;;
1507;SDS011;745;48.586;10.032;2024-02-21T03:10:55;6.17;;;4.10;;
1507;SDS011;745;48.586;10.032;2024-02-21T03:12:55;6.20;;;3.55;;
1507;SDS011;745;48.586;10.032;2024-02-21T03:14:56;7.20;;;3.50;;
1507;SDS011;745;48.586;10.032;2024-02-21T03:16:57;5.80;;;3.70;;
1507;SDS011;745;48.586;10.032;2024-02-21T03:18:58;11.13;;;3.65;;
1507;SDS011;745;48.586;10.032;2024-02-21T03:20:59;7.70;;;3.77;;
1507;SDS011;745;48.586;10.032;2024-02-21T03:22:59;5.75;;;4.07;;
1507;SDS011;745;48.586;10.032;2024-02-21T03:24:59;6.73;;;3.50;;
1507;SDS011;745;48.586;10.032;2024-02-21T03:27:00;4.53;;;3.37;;
1507;SDS011;745;48.586;10.032;2024-02-21T03:29:01;9.73;;;3.75;;
1507;SDS011;745;48.586;10.032;2024-02-21T03:31:02;4.83;;;3.50;;
1507;SDS011;745;48.586;10.032;2024-02-21T03:33:02;7.70;;;3.87;;
1507;SDS011;745;48.586;10.032;2024-02-21T03:35:03;8.00;;;4.23;;
1507;SDS011;745;48.586;10.032;2024-02-21T03:37:04;7.70;;;3.97;;
1507;SDS011;745;48.586;10.032;2024-02-21T03:39:04;12.53;;;4.50;;
1507;SDS011;745;48.586;10.032;2024-02-21T03:41:05;5.50;;;3.40;;
1507;SDS011;745;48.586;10.032;2024-02-21T03:43:05;9.50;;;4.47;;
1507;SDS011;745;48.586;10.032;2024-02-21T03:45:05;22.93;;;5.10;;
1507;SDS011;745;48.586;10.032;2024-02-21T03:47:06;4.78;;;3.78;;
1507;SDS011;745;48.586;10.032;2024-02-21T03:49:10;8.43;;;3.88;;
1507;SDS011;745;48.586;10.032;2024-02-21T03:51:10;6.33;;;3.90;;
1507;SDS011;745;48.586;10.032;2024-02-21T03:53:10;7.60;;;4.17;;
1507;SDS011;745;48.586;10.032;2024-02-21T03:55:11;6.13;;;3.80;;
1507;SDS011;745;48.586;10.032;2024-02-21T03:57:11;6.60;;;3.87;;
1507;SDS011;745;48.586;10.032;2024-02-21T03:59:12;7.40;;;3.80;;
1507;SDS011;745;48.586;10.032;2024-02-21T04:01:15;3.93;;;3.53;;
1507;SDS011;745;48.586;10.032;2024-02-21T04:03:15;8.23;;;3.90;;
1507;SDS011;745;48.586;10.032;2024-02-21T04:05:16;6.43;;;4.07;;
1507;SDS011;745;48.586;10.032;2024-02-21T04:07:17;4.07;;;3.30;;
1507;SDS011;745;48.586;10.032;2024-02-21T04:09:17;6.30;;;3.67;;
1507;SDS011;745;48.586;10.032;2024-02-21T04:11:18;7.47;;;3.40;;
1507;SDS011;745;48.586;10.032;2024-02-21T04:13:19;7.60;;;3.70;;
1507;SDS011;745;48.586;10.032;2024-02-21T04:15:19;10.63;;;4.00;;
1507;SDS011;745;48.586;10.032;2024-02-21T04:17:19;6.27;;;3.87;;
1507;SDS011;745;48.586;10.032;2024-02-21T04:19:20;10.07;;;4.17;;
1507;SDS011;745;48.586;10.032;2024-02-21T04:21:20;5.90;;;3.10;;
1507;SDS011;745;48.586;10.032;2024-02-21T04:23:20;10.57;;;3.90;;
1507;SDS011;745;48.586;10.032;2024-02-21T04:25:21;7.30;;;4.00;;
1507;SDS011;745;48.586;10.032;2024-02-21T04:27:21;7.47;;;3.53;;
1507;SDS011;745;48.586;10.032;2024-02-21T04:29:22;8.15;;;4.15;;
1507;SDS011;745;48.586;10.032;2024-02-21T04:31:23;4.90;;;3.30;;
1507;SDS011;745;48.586;10.032;2024-02-21T04:33:24;10.20;;;3.77;;
1507;SDS011;745;48.586;10.032;2024-02-21T04:35:24;6.57;;;3.53;;
1507;SDS011;745;48.586;10.032;2024-02-21T04:37:25;8.00;;;3.53;;
1507;SDS011;745;48.586;10.032;2024-02-21T04:39:25;4.93;;;3.33;;
1507;SDS011;745;48.586;10.032;2024-02-21T04:41:25;9.37;;;4.60;;
1507;SDS011;745;48.586;10.032;2024-02-21T04:43:25;6.00;;;4.33;;
1507;SDS011;745;48.586;10.032;2024-02-21T04:45:26;7.30;;;3.60;;
1507;SDS011;745;48.586;10.032;2024-02-21T04:47:26;9.20;;;3.43;;
1507;SDS011;745;48.586;10.032;2024-02-21T04:49:28;8.37;;;3.57;;
1507;SDS011;745;48.586;10.032;2024-02-21T04:51:28;6.30;;;3.30;;
1507;SDS011;745;48.586;10.032;2024-02-21T04:53:28;4.20;;;3.73;;
1507;SDS011;745;48.586;10.032;2024-02-21T04:55:28;10.30;;;4.60;;
1507;SDS011;745;48.586;10.032;2024-02-21T04:57:29;5.33;;;3.53;;
1507;SDS011;745;48.586;10.032;2024-02-21T04:59:30;6.77;;;4.30;;
1507;SDS011;745;48.586;10.032;2024-02-21T05:01:30;10.87;;;6.67;;
1507;SDS011;745;48.586;10.032;2024-02-21T05:03:31;13.90;;;8.40;;
1507;SDS011;745;48.586;10.032;2024-02-21T05:05:31;17.60;;;10.30;;
1507;SDS011;745;48.586;10.032;2024-02-21T05:07:31;8.93;;;4.90;;
1507;SDS011;745;48.586;10.032;2024-02-21T05:09:32;10.23;;;4.20;;
1507;SDS011;745;48.586;10.032;2024-02-21T05:11:32;8.30;;;4.60;;
1507;SDS011;745;48.586;10.032;2024-02-21T05:13:33;10.53;;;4.90;;
1507;SDS011;745;48.586;10.032;2024-02-21T05:15:33;6.30;;;4.10;;
1507;SDS011;745;48.586;10.032;2024-02-21T05:17:34;7.43;;;3.90;;
1507;SDS011;745;48.586;10.032;2024-02-21T05:19:34;12.93;;;4.37;;
1507;SDS011;745;48.586;10.032;2024-02-21T05:21:35;8.23;;;4.10;;
1507;SDS011;745;48.586;10.032;2024-02-21T05:23:35;7.72;;;4.25;;
1507;SDS011;745;48.586;10.032;2024-02-21T05:25:36;9.70;;;4.60;;
1507;SDS011;745;48.586;10.032;2024-02-21T05:27:36;7.83;;;4.10;;
1507;SDS011;745;48.586;10.032;2024-02-21T05:29:38;7.93;;;4.35;;
1507;SDS011;745;48.586;10.032;2024-02-21T05:33:51;7.97;;;4.10;;
1507;SDS011;745;48.586;10.032;2024-02-21T05:35:52;6.70;;;3.77;;
1507;SDS011;745;48.586;10.032;2024-02-21T05:37:52;14.57;;;5.13;;
1507;SDS011;745;48.586;10.032;2024-02-21T05:39:53;11.00;;;5.90;;
1507;SDS011;745;48.586;10.032;2024-02-21T05:41:53;9.70;;;5.17;;
1507;SDS011;745;48.586;10.032;2024-02-21T05:43:53;9.33;;;4.40;;
1507;SDS011;745;48.586;10.032;2024-02-21T05:45:53;6.77;;;4.40;;
1507;SDS011;745;48.586;10.032;2024-02-21T05:47:54;8.63;;;3.90;;
1507;SDS011;745;48.586;10.032;2024-02-21T05:49:54;8.27;;;4.50;;
1507;SDS011;745;48.586;10.032;2024-02-21T05:51:55;9.13;;;4.07;;
1507;SDS011;745;48.586;10.032;2024-02-21T05:53:55;8.47;;;4.90;;
1507;SDS011;745;48.586;10.032;2024-02-21T05:55:55;8.23;;;4.80;;
1507;SDS011;745;48.586;10.032;2024-02-21T05:57:56;13.27;;;5.23;;
1507;SDS011;745;48.586;10.032;2024-02-21T05:59:56;8.10;;;4.60;;
1507;SDS011;745;48.586;10.032;2024-02-21T06:01:57;4.30;;;3.57;;
1507;SDS011;745;48.586;10.032;2024-02-21T06:03:58;7.38;;;4.10;;
1507;SDS011;745;48.586;10.032;2024-02-21T06:06:01;5.53;;;3.60;;
1507;SDS011;745;48.586;10.032;2024-02-21T06:08:02;6.65;;;3.58;;
1507;SDS011;745;48.586;10.032;2024-02-21T06:10:03;5.57;;;3.80;;
1507;SDS011;745;48.586;10.032;2024-02-21T06:12:04;8.02;;;4.07;;
1507;SDS011;745;48.586;10.032;2024-02-21T06:14:05;7.77;;;4.40;;
1507;SDS011;745;48.586;10.032;2024-02-21T06:16:06;10.63;;;6.33;;
1507;SDS011;745;48.586;10.032;2024-02-21T06:18:07;8.90;;;5.65;;
1507;SDS011;745;48.586;10.032;2024-02-21T06:20:07;7.93;;;5.33;;
1507;SDS011;745;48.586;10.032;2024-02-21T06:22:08;6.50;;;4.82;;
1507;SDS011;745;48.586;10.032;2024-02-21T06:24:08;6.70;;;4.80;;
1507;SDS011;745;48.586;10.032;2024-02-21T06:26:09;6.57;;;3.83;;
1507;SDS011;745;48.586;10.032;2024-02-21T06:28:09;8.00;;;4.53;;
1507;SDS011;745;48.586;10.032;2024-02-21T06:30:10;9.40;;;5.30;;
1507;SDS011;745;48.586;10.032;2024-02-21T06:32:10;9.50;;;5.80;;
1507;SDS011;745;48.586;10.032;2024-02-21T06:34:11;8.53;;;5.40;;
1507;SDS011;745;48.586;10.032;2024-02-21T06:36:11;13.40;;;5.50;;
1507;SDS011;745;48.586;10.032;2024-02-21T06:38:12;11.73;;;6.97;;
1507;SDS011;745;48.586;10.032;2024-02-21T06:40:12;13.97;;;6.93;;
1507;SDS011;745;48.586;10.032;2024-02-21T06:42:12;12.30;;;8.03;;
1507;SDS011;745;48.586;10.032;2024-02-21T06:44:13;12.90;;;8.47;;
1507;SDS011;745;48.586;10.032;2024-02-21T06:46:23;12.97;;;7.97;;
1507;SDS011;745;48.586;10.032;2024-02-21T06:48:26;16.13;;;8.85;;
1507;SDS011;745;48.586;10.032;2024-02-21T06:50:26;14.65;;;9.23;;
1507;SDS011;745;48.586;10.032;2024-02-21T06:52:27;14.60;;;10.40;;
1507;SDS011;745;48.586;10.032;2024-02-21T06:54:27;14.27;;;8.48;;
1507;SDS011;745;48.586;10.032;2024-02-21T06:56:28;7.60;;;6.37;;
1507;SDS011;745;48.586;10.032;2024-02-21T06:58:28;8.77;;;5.90;;
1507;SDS011;745;48.586;10.032;2024-02-21T07:00:29;8.27;;;5.03;;
1507;SDS011;745;48.586;10.032;2024-02-21T07:02:29;8.70;;;4.63;;
1507;SDS011;745;48.586;10.032;2024-02-21T07:04:30;10.20;;;5.67;;
1507;SDS011;745;48.586;10.032;2024-02-21T07:06:31;6.80;;;4.50;;
1507;SDS011;745;48.586;10.032;2024-02-21T07:08:31;10.02;;;4.35;;
1507;SDS011;745;48.586;10.032;2024-02-21T07:10:32;7.57;;;4.53;;
1507;SDS011;745;48.586;10.032;2024-02-21T07:12:32;7.27;;;5.33;;
1507;SDS011;745;48.586;10.032;2024-02-21T07:14:32;10.60;;;5.03;;
1507;SDS011;745;48.586;10.032;2024-02-21T07:16:33;6.10;;;4.30;;
1507;SDS011;745;48.586;10.032;2024-02-21T07:18:33;7.93;;;5.40;;
1507;SDS011;745;48.586;10.032;2024-02-21T07:20:34;10.30;;;5.70;;
1507;SDS011;745;48.586;10.032;2024-02-21T07:22:36;7.30;;;5.30;;
1507;SDS011;745;48.586;10.032;2024-02-21T07:24:37;11.17;;;5.80;;
1507;SDS011;745;48.586;10.032;2024-02-21T07:26:40;11.00;;;5.53;;
1507;SDS011;745;48.586;10.032;2024-02-21T07:28:41;10.05;;;5.10;;
1507;SDS011;745;48.586;10.032;2024-02-21T07:30:42;9.27;;;4.40;;
1507;SDS011;745;48.586;10.032;2024-02-21T07:32:43;9.57;;;5.20;;
1507;SDS011;745;48.586;10.032;2024-02-21T07:34:43;8.83;;;4.80;;
1507;SDS011;745;48.586;10.032;2024-02-21T07:36:44;6.83;;;4.90;;
1507;SDS011;745;48.586;10.032;2024-02-21T07:38:45;7.47;;;3.95;;
1507;SDS011;745;48.586;10.032;2024-02-21T07:40:45;7.20;;;4.67;;
1507;SDS011;745;48.586;10.032;2024-02-21T07:42:46;8.93;;;3.90;;
1507;SDS011;745;48.586;10.032;2024-02-21T07:44:46;10.87;;;4.40;;
1507;SDS011;745;48.586;10.032;2024-02-21T07:46:47;7.20;;;3.83;;
1507;SDS011;745;48.586;10.032;2024-02-21T07:48:47;7.90;;;4.23;;
1507;SDS011;745;48.586;10.032;2024-02-21T07:50:48;6.70;;;3.93;;
1507;SDS011;745;48.586;10.032;2024-02-21T07:52:49;7.70;;;4.43;;
1507;SDS011;745;48.586;10.032;2024-02-21T07:54:49;4.40;;;3.63;;
1507;SDS011;745;48.586;10.032;2024-02-21T07:56:49;6.43;;;3.77;;
1507;SDS011;745;48.586;10.032;2024-02-21T07:58:49;14.03;;;4.90;;
1507;SDS011;745;48.586;10.032;2024-02-21T08:00:50;7.40;;;4.33;;
1507;SDS011;745;48.586;10.032;2024-02-21T08:02:50;7.03;;;4.00;;
1507;SDS011;745;48.586;10.032;2024-02-21T08:04:50;7.77;;;4.30;;
1507;SDS011;745;48.586;10.032;2024-02-21T08:06:54;12.20;;;4.53;;
1507;SDS011;745;48.586;10.032;2024-02-21T08:08:55;7.03;;;4.18;;
1507;SDS011;745;48.586;10.032;2024-02-21T08:10:57;9.52;;;4.03;;
1507;SDS011;745;48.586;10.032;2024-02-21T08:12:57;13.37;;;4.43;;
1507;SDS011;745;48.586;10.032;2024-02-21T08:14:57;7.50;;;4.77;;
1507;SDS011;745;48.586;10.032;2024-02-21T08:16:58;7.80;;;4.43;;
1507;SDS011;745;48.586;10.032;2024-02-21T08:18:59;5.65;;;4.30;;
1507;SDS011;745;48.586;10.032;2024-02-21T08:21:00;9.73;;;4.70;;
1507;SDS011;745;48.586;10.032;2024-02-21T08:23:00;11.63;;;5.73;;
1507;SDS011;745;48.586;10.032;2024-02-21T08:25:02;12.63;;;6.33;;
1507;SDS011;745;48.586;10.032;2024-02-21T08:27:05;9.90;;;5.40;;
1507;SDS011;745;48.586;10.032;2024-02-21T08:29:07;8.95;;;5.05;;
1507;SDS011;745;48.586;10.032;2024-02-21T08:31:07;8.43;;;4.70;;
1507;SDS011;745;48.586;10.032;2024-02-21T08:33:08;9.10;;;5.13;;
1507;SDS011;745;48.586;10.032;2024-02-21T08:35:08;12.17;;;4.70;;
1507;SDS011;745;48.586;10.032;2024-02-21T08:37:09;7.30;;;4.10;;
1507;SDS011;745;48.586;10.032;2024-02-21T08:39:10;7.47;;;4.00;;
1507;SDS011;745;48.586;10.032;2024-02-21T08:41:12;8.30;;;3.80;;
1507;SDS011;745;48.586;10.032;2024-02-21T08:43:12;6.95;;;3.88;;
1507;SDS011;745;48.586;10.032;2024-02-21T08:45:12;5.37;;;4.17;;
1507;SDS011;745;48.586;10.032;2024-02-21T08:47:13;7.33;;;3.23;;
1507;SDS011;745;48.586;10.032;2024-02-21T08:49:13;6.17;;;3.70;;
1507;SDS011;745;48.586;10.032;2024-02-21T08:51:14;7.70;;;4.20;;
1507;SDS011;745;48.586;10.032;2024-02-21T08:53:14;7.10;;;3.90;;
1507;SDS011;745;48.586;10.032;2024-02-21T08:55:14;5.97;;;3.60;;
1507;SDS011;745;48.586;10.032;2024-02-21T08:57:15;7.00;;;3.70;;
1507;SDS011;745;48.586;10.032;2024-02-21T08:59:15;6.70;;;3.90;;
1507;SDS011;745;48.586;10.032;2024-02-21T09:01:16;5.50;;;3.97;;
1507;SDS011;745;48.586;10.032;2024-02-21T09:03:16;5.50;;;3.30;;
1507;SDS011;745;48.586;10.032;2024-02-21T09:05:19;7.32;;;4.03;;
1507;SDS011;745;48.586;10.032;2024-02-21T09:07:20;8.90;;;4.03;;
1507;SDS011;745;48.586;10.032;2024-02-21T09:09:21;6.83;;;4.23;;
1507;SDS011;745;48.586;10.032;2024-02-21T09:11:21;7.30;;;4.27;;
1507;SDS011;745;48.586;10.032;2024-02-21T09:13:22;6.83;;;3.80;;
1507;SDS011;745;48.586;10.032;2024-02-21T09:15:23;5.95;;;3.53;;
1507;SDS011;745;48.586;10.032;2024-02-21T09:17:24;6.87;;;3.70;;
1507;SDS011;745;48.586;10.032;2024-02-21T09:19:25;6.80;;;4.23;;
1507;SDS011;745;48.586;10.032;2024-02-21T09:21:25;8.23;;;4.10;;
1507;SDS011;745;48.586;10.032;2024-02-21T09:23:26;6.20;;;3.87;;
1507;SDS011;745;48.586;10.032;2024-02-21T09:25:27;5.93;;;3.60;;
1507;SDS011;745;48.586;10.032;2024-02-21T09:27:27;9.30;;;3.90;;
1507;SDS011;745;48.586;10.032;2024-02-21T09:29:27;7.10;;;3.50;;
1507;SDS011;745;48.586;10.032;2024-02-21T09:31:27;9.80;;;4.30;;
1507;SDS011;745;48.586;10.032;2024-02-21T09:33:28;5.83;;;4.17;;
1507;SDS011;745;48.586;10.032;2024-02-21T09:35:28;7.43;;;3.57;;
1507;SDS011;745;48.586;10.032;2024-02-21T09:37:28;5.97;;;4.10;;
1507;SDS011;745;48.586;10.032;2024-02-21T09:39:29;6.60;;;4.10;;
1507;SDS011;745;48.586;10.032;2024-02-21T09:41:30;6.95;;;3.85;;
1507;SDS011;745;48.586;10.032;2024-02-21T09:43:31;5.80;;;4.00;;
1507;SDS011;745;48.586;10.032;2024-02-21T09:45:33;6.60;;;3.63;;
1507;SDS011;745;48.586;10.032;2024-02-21T09:47:43;13.02;;;4.53;;
1507;SDS011;745;48.586;10.032;2024-02-21T09:49:51;4.70;;;3.67;;
1507;SDS011;745;48.586;10.032;2024-02-21T09:51:52;7.47;;;4.83;;
1507;SDS011;745;48.586;10.032;2024-02-21T09:53:54;7.00;;;4.45;;
1507;SDS011;745;48.586;10.032;2024-02-21T09:55:56;4.78;;;4.30;;
1507;SDS011;745;48.586;10.032;2024-02-21T09:57:57;7.97;;;4.70;;
1507;SDS011;745;48.586;10.032;2024-02-21T09:59:58;6.68;;;3.95;;
1507;SDS011;745;48.586;10.032;2024-02-21T10:01:59;9.63;;;4.20;;
1507;SDS011;745;48.586;10.032;2024-02-21T10:04:03;5.22;;;3.80;;
1507;SDS011;745;48.586;10.032;2024-02-21T10:06:04;6.75;;;4.40;;
1507;SDS011;745;48.586;10.032;2024-02-21T10:08:05;7.17;;;4.10;;
1507;SDS011;745;48.586;10.032;2024-02-21T10:10:05;5.67;;;3.93;;
1507;SDS011;745;48.586;10.032;2024-02-21T10:12:10;6.17;;;4.40;;
1507;SDS011;745;48.586;10.032;2024-02-21T10:14:11;9.95;;;4.35;;
1507;SDS011;745;48.586;10.032;2024-02-21T10:16:12;6.60;;;4.23;;
1507;SDS011;745;48.586;10.032;2024-02-21T10:18:13;7.90;;;4.67;;
1507;SDS011;745;48.586;10.032;2024-02-21T10:20:17;5.70;;;4.18;;
1507;SDS011;745;48.586;10.032;2024-02-21T10:22:18;6.93;;;4.57;;
1507;SDS011;745;48.586;10.032;2024-02-21T10:24:26;7.10;;;4.00;;
1507;SDS011;745;48.586;10.032;2024-02-21T10:26:27;8.02;;;4.85;;
1507;SDS011;745;48.586;10.032;2024-02-21T10:28:28;8.80;;;5.10;;
1507;SDS011;745;48.586;10.032;2024-02-21T10:30:28;8.27;;;5.23;;
1507;SDS011;745;48.586;10.032;2024-02-21T10:32:29;12.13;;;5.13;;
1507;SDS011;745;48.586;10.032;2024-02-21T10:34:30;6.68;;;5.03;;
1507;SDS011;745;48.586;10.032;2024-02-21T10:36:31;6.40;;;5.03;;
1507;SDS011;745;48.586;10.032;2024-02-21T10:38:32;7.83;;;5.13;;
1507;SDS011;745;48.586;10.032;2024-02-21T10:40:33;9.68;;;5.68;;
1507;SDS011;745;48.586;10.032;2024-02-21T10:42:34;9.57;;;5.17;;
1507;SDS011;745;48.586;10.032;2024-02-21T10:44:39;10.95;;;5.40;;
1507;SDS011;745;48.586;10.032;2024-02-21T10:46:40;5.22;;;4.38;;
1507;SDS011;745;48.586;10.032;2024-02-21T10:48:42;6.07;;;4.60;;
1507;SDS011;745;48.586;10.032;2024-02-21T10:50:55;10.32;;;5.03;;
1507;SDS011;745;48.586;10.032;2024-02-21T10:53:02;5.82;;;4.50;;
1507;SDS011;745;48.586;10.032;2024-02-21T10:55:32;5.78;;;4.65;;
1507;SDS011;745;48.586;10.032;2024-02-21T10:57:42;9.45;;;5.05;;
1507;SDS011;745;48.586;10.032;2024-02-21T10:59:44;7.82;;;4.80;;
1507;SDS011;745;48.586;10.032;2024-02-21T11:01:45;7.60;;;5.18;;
1507;SDS011;745;48.586;10.032;2024-02-21T11:03:45;7.90;;;5.90;;
1507;SDS011;745;48.586;10.032;2024-02-21T11:05:47;7.47;;;5.10;;
1507;SDS011;745;48.586;10.032;2024-02-21T11:07:48;12.20;;;5.20;;
1507;SDS011;745;48.586;10.032;2024-02-21T11:09:52;7.20;;;5.10;;
1507;SDS011;745;48.586;10.032;2024-02-21T11:11:53;7.30;;;4.95;;
1507;SDS011;745;48.586;10.032;2024-02-21T11:14:03;7.20;;;5.00;;
1507;SDS011;745;48.586;10.032;2024-02-21T11:16:11;4.68;;;4.07;;
1507;SDS011;745;48.586;10.032;2024-02-21T11:18:22;4.85;;;3.97;;
1507;SDS011;745;48.586;10.032;2024-02-21T11:20:33;8.25;;;5.38;;
1507;SDS011;745;48.586;10.032;2024-02-21T11:22:40;5.38;;;4.57;;
1507;SDS011;745;48.586;10.032;2024-02-21T11:24:41;7.03;;;4.32;;
1507;SDS011;745;48.586;10.032;2024-02-21T11:26:42;7.50;;;5.30;;
1507;SDS011;745;48.586;10.032;2024-02-21T11:28:43;4.93;;;3.90;;
1507;SDS011;745;48.586;10.032;2024-02-21T11:30:44;5.72;;;3.60;;
1507;SDS011;745;48.586;10.032;2024-02-21T11:32:45;7.07;;;4.38;;
1507;SDS011;745;48.586;10.032;2024-02-21T11:34:56;6.53;;;4.70;;
1507;SDS011;745;48.586;10.032;2024-02-21T11:36:56;6.30;;;4.13;;
1507;SDS011;745;48.586;10.032;2024-02-21T11:39:02;5.10;;;4.13;;
1507;SDS011;745;48.586;10.032;2024-02-21T11:41:04;7.22;;;5.53;;
1507;SDS011;745;48.586;10.032;2024-02-21T11:43:08;5.40;;;3.80;;
1507;SDS011;745;48.586;10.032;2024-02-21T11:45:09;4.33;;;3.23;;
1507;SDS011;745;48.586;10.032;2024-02-21T11:47:09;6.70;;;3.30;;
1507;SDS011;745;48.586;10.032;2024-02-21T11:49:10;5.10;;;3.67;;
1507;SDS011;745;48.586;10.032;2024-02-21T11:51:10;8.60;;;3.70;;
1507;SDS011;745;48.586;10.032;2024-02-21T11:53:11;5.77;;;3.37;;
1507;SDS011;745;48.586;10.032;2024-02-21T11:55:11;6.53;;;3.73;;
1507;SDS011;745;48.586;10.032;2024-02-21T11:57:11;5.00;;;3.40;;
1507;SDS011;745;48.586;10.032;2024-02-21T11:59:12;5.73;;;3.97;;
1507;SDS011;745;48.586;10.032;2024-02-21T12:01:13;6.40;;;3.40;;
1507;SDS011;745;48.586;10.032;2024-02-21T12:03:14;7.05;;;3.20;;
1507;SDS011;745;48.586;10.032;2024-02-21T12:05:15;4.65;;;3.30;;
1507;SDS011;745;48.586;10.032;2024-02-21T12:07:15;4.63;;;3.43;;
1507;SDS011;745;48.586;10.032;2024-02-21T12:09:16;3.77;;;3.10;;
1507;SDS011;745;48.586;10.032;2024-02-21T12:11:22;4.03;;;3.17;;
1507;SDS011;745;48.586;10.032;2024-02-21T12:13:22;5.10;;;3.58;;
1507;SDS011;745;48.586;10.032;2024-02-21T12:15:23;3.70;;;2.77;;
1507;SDS011;745;48.586;10.032;2024-02-21T12:17:24;5.60;;;2.90;;
1507;SDS011;745;48.586;10.032;2024-02-21T12:19:24;4.77;;;3.00;;
1507;SDS011;745;48.586;10.032;2024-02-21T12:21:29;5.90;;;3.30;;
1507;SDS011;745;48.586;10.032;2024-02-21T12:23:32;6.90;;;3.80;;
1507;SDS011;745;48.586;10.032;2024-02-21T12:25:32;4.07;;;3.30;;
1507;SDS011;745;48.586;10.032;2024-02-21T12:27:33;5.23;;;3.43;;
1507;SDS011;745;48.586;10.032;2024-02-21T12:29:34;4.47;;;2.80;;
1507;SDS011;745;48.586;10.032;2024-02-21T12:31:36;4.18;;;3.42;;
1507;SDS011;745;48.586;10.032;2024-02-21T12:33:39;4.78;;;3.28;;